createdAt,value
2023-03-13T00:04:52.866Z,5.22
2023-03-13T00:15:14.658Z,5.20
2023-03-13T00:25:37.861Z,5.35
2023-03-13T00:36:00.761Z,6.72
2023-03-13T00:46:26.331Z,6.85
2023-03-13T00:56:48.150Z,6.13
2023-03-13T01:07:11.168Z,6.72
2023-03-13T01:17:32.911Z,5.90
2023-03-13T01:27:56.072Z,6.10
2023-03-13T01:38:18.111Z,7.93
2023-03-13T01:48:48.066Z,7.97
2023-03-13T01:59:15.133Z,7.50
2023-03-13T02:09:43.065Z,7.20
2023-03-13T02:20:05.932Z,5.93
2023-03-13T02:30:29.379Z,6.65
2023-03-13T02:40:53.238Z,4.82
2023-03-13T02:51:23.774Z,5.53
2023-03-13T03:01:45.787Z,5.20
2023-03-13T03:12:09.806Z,3.20
2023-03-13T03:22:31.696Z,5.13
2023-03-13T03:32:57.152Z,3.33
2023-03-13T03:43:19.074Z,4.05
2023-03-13T03:53:42.325Z,3.45
2023-03-13T04:04:04.467Z,3.15
2023-03-13T04:14:27.812Z,4.00
2023-03-13T04:24:50.209Z,2.88
2023-03-13T04:35:14.784Z,3.78
2023-03-13T04:46:00.847Z,3.00
2023-03-13T04:56:44.018Z,4.15
2023-03-13T05:07:29.223Z,3.22
2023-03-13T05:18:02.786Z,3.28
2023-03-13T05:28:57.090Z,3.63
2023-03-13T05:39:58.539Z,2.83
2023-03-13T05:50:52.772Z,2.75
2023-03-13T06:01:44.913Z,3.95
2023-03-13T06:12:14.548Z,3.00
2023-03-13T06:22:37.719Z,4.80
2023-03-13T06:33:00.019Z,3.13
2023-03-13T06:43:23.498Z,3.88
2023-03-13T06:53:45.628Z,4.80
2023-03-13T07:04:10.308Z,2.92
2023-03-13T07:14:32.495Z,3.30
2023-03-13T07:24:55.974Z,5.85
2023-03-13T07:35:17.918Z,3.15
2023-03-13T07:45:40.917Z,3.70
2023-03-13T07:56:04.504Z,4.57
2023-03-13T08:06:28.879Z,2.97
2023-03-13T08:16:50.398Z,3.42
2023-03-13T08:27:13.557Z,3.63
2023-03-13T08:37:35.151Z,2.55
2023-03-13T08:47:58.126Z,3.45
2023-03-13T08:58:19.978Z,3.78
2023-03-13T09:08:45.155Z,3.13
2023-03-13T09:19:06.837Z,3.30
2023-03-13T09:29:29.960Z,2.95
2023-03-13T09:39:51.892Z,2.50
2023-03-13T09:50:18.328Z,3.00
2023-03-13T10:00:41.576Z,3.30
2023-03-13T10:11:08.164Z,2.28
2023-03-13T10:21:34.919Z,3.67
2023-03-13T10:32:00.406Z,2.28
2023-03-13T10:42:25.638Z,2.20
2023-03-13T10:52:49.837Z,2.25
2023-03-13T11:03:18.869Z,1.88
2023-03-13T11:13:43.930Z,1.83
2023-03-13T11:24:11.538Z,1.83
2023-03-13T11:34:41.482Z,1.63
2023-03-13T11:45:14.214Z,1.70
2023-03-13T11:55:48.298Z,1.70
2023-03-13T12:06:28.330Z,1.50
2023-03-13T12:16:57.204Z,1.70
2023-03-13T12:27:22.366Z,1.40
2023-03-13T12:37:49.957Z,1.15
2023-03-13T12:48:27.083Z,1.10
2023-03-13T12:58:54.504Z,1.50
2023-03-13T13:09:21.008Z,1.40
2023-03-13T13:19:48.705Z,1.25
2023-03-13T13:30:31.466Z,1.25
2023-03-13T13:41:03.453Z,1.42
2023-03-13T13:51:26.730Z,1.23
2023-03-13T14:01:51.340Z,1.50
2023-03-13T14:12:31.369Z,1.40
2023-03-13T14:22:57.573Z,1.23
2023-03-13T14:33:20.557Z,1.55
2023-03-13T14:43:43.918Z,1.30
2023-03-13T14:54:05.851Z,1.50
2023-03-13T15:05:07.826Z,1.30
2023-03-13T15:15:31.178Z,1.50
2023-03-13T15:25:52.864Z,1.30
2023-03-13T15:36:16.163Z,1.55
2023-03-13T15:46:38.326Z,1.55
2023-03-13T15:57:03.427Z,1.75
2023-03-13T16:07:25.457Z,1.73
2023-03-13T16:17:48.313Z,1.63
2023-03-13T16:28:13.075Z,1.55
2023-03-13T16:38:35.943Z,1.60
2023-03-13T16:48:58.473Z,1.67
2023-03-13T16:59:23.247Z,1.25
2023-03-13T17:09:44.922Z,1.55
2023-03-13T17:20:13.983Z,1.55
2023-03-13T17:30:35.669Z,1.70
2023-03-13T17:40:59.537Z,2.38
2023-03-13T17:51:22.835Z,1.65
2023-03-13T18:01:46.593Z,1.92
2023-03-13T18:12:11.148Z,1.70
2023-03-13T18:22:33.966Z,1.60
2023-03-13T18:32:56.254Z,1.90
2023-03-13T18:43:19.880Z,1.70
2023-03-13T18:53:41.732Z,2.08
2023-03-13T19:04:05.314Z,1.80
2023-03-13T19:14:27.487Z,1.70
2023-03-13T19:24:50.432Z,2.03
2023-03-13T19:35:13.229Z,2.03
2023-03-13T19:45:36.101Z,2.17
2023-03-13T19:55:58.369Z,2.30
2023-03-13T20:06:23.309Z,3.17
2023-03-13T20:16:47.439Z,2.60
2023-03-13T20:27:10.196Z,2.58
2023-03-13T20:37:32.170Z,2.30
2023-03-13T20:47:55.531Z,2.05
2023-03-13T20:58:17.865Z,2.13
2023-03-13T21:08:41.122Z,2.25
2023-03-13T21:19:02.895Z,1.58
2023-03-13T21:29:26.196Z,1.50
2023-03-13T21:39:51.852Z,1.60
2023-03-13T21:50:15.083Z,1.52
2023-03-13T22:00:36.736Z,1.30
2023-03-13T22:10:59.992Z,1.30
2023-03-13T22:21:21.554Z,1.33
2023-03-13T22:31:44.785Z,1.20
2023-03-13T22:42:06.888Z,1.30
2023-03-13T22:52:30.968Z,1.10
2023-03-13T23:02:54.613Z,1.00
2023-03-13T23:13:17.705Z,1.50
2023-03-13T23:23:40.131Z,1.27
2023-03-13T23:34:02.978Z,1.20
2023-03-13T23:44:25.124Z,1.48
2023-03-13T23:54:48.119Z,1.48
